Time;durP1;ratioP1;P1;durP2;ratioP2;P2;SDS_P1;SDS_P2;PMS_P1;PMS_P2;Temp;Humidity;BMP_temperature;BMP_pressure;BME280_temperature;BME280_humidity;BME280_pressure;Samples;Min_cycle;Max_cycle;Signal;HPM_P1;HPM_P2
2021/06/16 00:01:10;;;;;;;7.28;4.05;;;27.20;41.20;;;;;;20977905;28;20055;-59
2021/06/16 00:11:11;;;;;;;5.00;3.40;;;27.00;42.30;;;;;;20994910;28;20094;-55
2021/06/16 00:21:14;;;;;;;6.20;3.38;;;26.80;42.40;;;;;;20994095;28;20049;-57
2021/06/16 00:31:15;;;;;;;8.13;3.47;;;26.80;41.70;;;;;;20994145;28;20574;-57
2021/06/16 00:41:17;;;;;;;;;;;26.80;41.50;;;;;;20993654;28;20048;-54
2021/06/16 00:51:18;;;;;;;7.43;3.47;;;26.60;41.40;;;;;;21004156;28;19920;-59
2021/06/16 01:01:24;;;;;;;;;;;26.70;40.90;;;;;;21009436;28;20056;-55
2021/06/16 01:11:28;;;;;;;5.75;3.25;;;26.60;39.90;;;;;;21008717;28;19924;-53
2021/06/16 01:21:30;;;;;;;5.45;3.10;;;26.60;39.90;;;;;;21007091;28;20550;-54
2021/06/16 01:31:32;;;;;;;5.38;3.08;;;26.60;39.50;;;;;;21006967;28;20079;-54
2021/06/16 01:41:34;;;;;;;4.15;2.78;;;26.60;39.50;;;;;;21006680;28;20127;-55
2021/06/16 01:51:36;;;;;;;5.25;2.90;;;26.60;39.10;;;;;;21004768;28;20044;-53
2021/06/16 02:01:37;;;;;;;;;;;26.50;39.50;;;;;;20985702;28;20102;-53
2021/06/16 02:11:41;;;;;;;4.67;2.83;;;26.40;39.30;;;;;;20985476;28;19920;-54
2021/06/16 02:21:44;;;;;;;4.55;2.83;;;26.40;39.30;;;;;;21002293;28;20052;-55
2021/06/16 02:31:46;;;;;;;6.93;2.67;;;26.30;39.00;;;;;;20983627;28;20056;-54
2021/06/16 02:41:49;;;;;;;4.32;2.80;;;26.40;39.00;;;;;;21000678;28;20127;-53
2021/06/16 02:51:51;;;;;;;4.55;2.40;;;26.30;38.90;;;;;;20999959;28;20127;-54
2021/06/16 03:01:52;;;;;;;3.30;2.28;;;26.30;38.80;;;;;;20998696;28;20135;-58
2021/06/16 03:11:55;;;;;;;5.78;2.25;;;26.20;38.70;;;;;;20997691;28;20123;-52
2021/06/16 03:21:58;;;;;;;6.03;2.75;;;26.20;38.50;;;;;;20979590;28;20052;-53
2021/06/16 03:32:02;;;;;;;5.68;3.40;;;26.10;38.80;;;;;;20996660;28;20496;-53
2021/06/16 03:42:04;;;;;;;6.20;2.65;;;26.00;39.10;;;;;;20995529;28;20048;-54
2021/06/16 03:52:07;;;;;;;3.97;2.35;;;26.00;39.20;;;;;;20996153;28;20404;-54
2021/06/16 04:02:08;;;;;;;4.93;2.80;;;25.90;38.80;;;;;;20994842;28;20052;-52
2021/06/16 04:12:10;;;;;;;4.10;2.80;;;25.90;38.80;;;;;;20994304;28;20044;-53
2021/06/16 04:22:13;;;;;;;10.02;2.88;;;25.90;38.80;;;;;;20998288;28;20093;-57
2021/06/16 04:32:14;;;;;;;4.80;2.53;;;25.80;38.80;;;;;;21010792;28;20044;-55
2021/06/16 04:42:16;;;;;;;3.25;2.50;;;25.80;38.80;;;;;;21009780;28;20385;-53
2021/06/16 04:52:17;;;;;;;5.97;3.58;;;25.70;38.90;;;;;;20990864;28;20067;-54
2021/06/16 05:02:19;;;;;;;6.83;2.63;;;25.60;39.10;;;;;;20989986;28;20095;-54
2021/06/16 05:12:20;;;;;;;4.97;2.67;;;25.50;39.50;;;;;;21006892;28;20048;-54
2021/06/16 05:22:22;;;;;;;3.63;2.90;;;25.60;39.60;;;;;;21006527;28;20052;-52
2021/06/16 05:32:23;;;;;;;;;;;25.50;39.60;;;;;;21006275;28;20045;-54
2021/06/16 05:42:24;;;;;;;8.10;3.10;;;25.20;40.20;;;;;;21005783;28;19920;-53
2021/06/16 05:52:26;;;;;;;5.87;3.23;;;25.20;40.50;;;;;;21005569;28;20417;-53
2021/06/16 06:02:27;;;;;;;7.33;3.10;;;25.20;40.50;;;;;;21004332;28;20481;-54
2021/06/16 06:12:28;;;;;;;8.47;3.40;;;25.20;40.70;;;;;;21002970;28;20779;-55
2021/06/16 06:22:30;;;;;;;4.60;3.40;;;25.30;40.70;;;;;;21002304;28;20049;-54
2021/06/16 06:32:31;;;;;;;11.70;3.77;;;25.40;40.90;;;;;;21002185;28;20048;-54
2021/06/16 06:42:33;;;;;;;7.40;3.67;;;25.40;40.90;;;;;;21000641;28;20056;-54
2021/06/16 06:52:34;;;;;;;9.35;4.47;;;25.50;41.30;;;;;;20999850;28;20387;-53
2021/06/16 07:02:36;;;;;;;13.50;4.97;;;25.70;42.60;;;;;;20998349;28;20487;-54
2021/06/16 07:12:38;;;;;;;12.40;5.05;;;25.90;44.10;;;;;;20982123;28;20053;-61
2021/06/16 07:22:39;;;;;;;10.43;4.75;;;26.10;44.30;;;;;;20997718;28;20052;-54
2021/06/16 07:32:41;;;;;;;13.52;6.28;;;26.00;44.80;;;;;;20996596;28;20063;-54
2021/06/16 07:42:43;;;;;;;10.77;4.45;;;26.70;43.70;;;;;;20996712;28;20547;-58
2021/06/16 07:52:44;;;;;;;12.13;4.20;;;26.90;42.40;;;;;;20995697;28;20045;-53
2021/06/16 08:02:45;;;;;;;10.88;5.38;;;26.90;42.60;;;;;;20994868;28;20128;-54
2021/06/16 08:12:47;;;;;;;;;;;27.20;42.20;;;;;;20995590;28;20055;-60
2021/06/16 08:22:48;;;;;;;12.00;4.80;;;27.70;41.40;;;;;;20995153;28;19920;-55
2021/06/16 08:32:49;;;;;;;12.88;5.80;;;28.00;40.60;;;;;;20994075;28;20492;-54
2021/06/16 08:42:51;;;;;;;12.25;4.53;;;28.20;40.90;;;;;;20985847;28;20052;-51
2021/06/16 08:52:52;;;;;;;12.65;4.75;;;28.60;39.80;;;;;;20972986;28;20469;-55
2021/06/16 09:02:53;;;;;;;10.35;4.47;;;28.90;39.40;;;;;;20973920;28;20474;-56
2021/06/16 09:12:59;;;;;;;10.80;5.32;;;29.10;39.10;;;;;;21002952;28;20044;-57
2021/06/16 09:23:16;;;;;;;9.73;4.50;;;29.10;38.90;;;;;;21007105;28;20546;-53
2021/06/16 09:33:17;;;;;;;11.63;5.50;;;29.60;37.20;;;;;;21003473;28;20056;-55
2021/06/16 09:43:20;;;;;;;13.30;4.75;;;30.00;36.80;;;;;;21001873;28;20052;-54
2021/06/16 09:53:22;;;;;;;10.65;4.32;;;30.40;35.40;;;;;;20999926;28;20045;-50
2021/06/16 10:03:24;;;;;;;10.45;4.38;;;30.50;34.70;;;;;;21003394;28;20402;-54
2021/06/16 10:13:27;;;;;;;6.47;4.13;;;30.70;34.00;;;;;;20993176;28;20406;-52
2021/06/16 10:23:28;;;;;;;11.35;4.82;;;30.80;34.10;;;;;;20997035;28;20380;-51
2021/06/16 10:33:35;;;;;;;8.95;4.22;;;30.90;33.90;;;;;;21000568;28;20059;-53
2021/06/16 10:43:38;;;;;;;10.57;4.60;;;31.00;33.00;;;;;;21000627;28;20145;-52
2021/06/16 10:54:19;;;;;;;7.78;3.97;;;31.10;33.40;;;;;;20998330;28;20049;-53
2021/06/16 11:04:30;;;;;;;11.13;4.20;;;31.40;33.30;;;;;;20996380;28;20055;-54
2021/06/16 11:14:37;;;;;;;16.67;7.03;;;31.20;33.20;;;;;;20996591;28;20091;-54
2021/06/16 11:25:17;;;;;;;10.35;4.95;;;31.00;33.30;;;;;;20996275;28;20045;-53
2021/06/16 11:35:37;;;;;;;10.43;4.03;;;31.00;33.40;;;;;;20995785;28;20056;-54
2021/06/16 11:45:39;;;;;;;9.90;4.13;;;31.20;32.60;;;;;;20993905;28;20055;-53
2021/06/16 11:55:46;;;;;;;16.42;4.63;;;30.90;33.30;;;;;;20977728;28;20044;-62
2021/06/16 12:05:47;;;;;;;9.35;3.72;;;31.30;32.10;;;;;;20975736;28;20056;-54
2021/06/16 12:22:21;;;;;;;20.65;12.73;;;31.40;32.90;;;;;;20742039;27;20390;-53
2021/06/16 12:32:31;;;;;;;10.77;5.18;;;31.70;32.80;;;;;;20872694;28;20045;-55
2021/06/16 12:42:51;;;;;;;15.13;6.70;;;31.80;31.20;;;;;;20830828;28;20120;-55
2021/06/16 12:52:52;;;;;;;6.93;4.18;;;31.90;31.10;;;;;;20824171;28;20054;-54
2021/06/16 13:02:54;;;;;;;9.98;3.80;;;31.90;30.70;;;;;;20890909;28;20457;-55
2021/06/16 13:13:03;;;;;;;11.32;4.32;;;31.60;31.20;;;;;;20897422;28;20088;-55
2021/06/16 13:23:34;;;;;;;12.48;3.65;;;32.00;30.80;;;;;;20896415;28;20107;-56
2021/06/16 13:33:40;;;;;;;10.82;4.97;;;32.10;30.40;;;;;;20840304;28;20056;-56
2021/06/16 13:43:44;;;;;;;9.65;4.57;;;32.10;30.50;;;;;;20839920;28;20045;-54
2021/06/16 13:53:47;;;;;;;11.60;3.90;;;32.30;30.40;;;;;;20839904;28;20552;-55
2021/06/16 14:03:49;;;;;;;14.48;5.18;;;32.60;30.20;;;;;;20837422;28;20088;-55
2021/06/16 14:13:51;;;;;;;10.52;4.90;;;32.50;30.30;;;;;;20837951;28;20088;-54
2021/06/16 14:23:53;;;;;;;10.93;4.50;;;32.50;30.50;;;;;;20837823;28;20400;-56
2021/06/16 14:33:55;;;;;;;12.65;5.20;;;32.60;30.40;;;;;;20836843;28;20072;-54
2021/06/16 14:43:56;;;;;;;14.02;5.00;;;32.60;30.30;;;;;;20834538;28;20084;-55
2021/06/16 14:53:58;;;;;;;14.98;4.97;;;32.60;30.40;;;;;;20834843;28;20057;-55
2021/06/16 15:03:59;;;;;;;11.38;4.57;;;32.70;29.70;;;;;;20834153;28;20490;-55
2021/06/16 15:14:00;;;;;;;9.38;3.40;;;32.60;29.90;;;;;;20832073;28;20057;-55
2021/06/16 15:24:03;;;;;;;8.23;3.50;;;32.60;29.60;;;;;;20832524;28;20128;-54
2021/06/16 15:34:04;;;;;;;10.95;4.00;;;32.30;29.40;;;;;;20831101;28;20052;-56
2021/06/16 15:44:06;;;;;;;8.35;4.03;;;32.40;29.30;;;;;;20831292;28;20456;-56
2021/06/16 15:54:07;;;;;;;12.32;4.13;;;32.50;29.40;;;;;;20830152;28;20148;-55
2021/06/16 16:04:08;;;;;;;9.82;3.63;;;32.80;28.90;;;;;;20830318;28;20184;-54
2021/06/16 16:14:11;;;;;;;12.60;3.85;;;32.70;29.00;;;;;;20829142;28;20152;-55
2021/06/16 16:24:12;;;;;;;9.60;4.55;;;32.50;28.80;;;;;;20829705;28;20104;-55
2021/06/16 16:34:15;;;;;;;12.02;4.05;;;32.50;29.00;;;;;;20828145;28;20088;-52
2021/06/16 16:44:17;;;;;;;7.75;3.90;;;32.60;28.60;;;;;;20749632;28;20046;-55
2021/06/16 16:54:19;;;;;;;6.55;3.60;;;32.60;29.40;;;;;;20744745;28;20049;-56
2021/06/16 17:04:21;;;;;;;9.20;3.67;;;32.20;29.30;;;;;;20755515;28;20457;-56
2021/06/16 17:14:24;;;;;;;7.85;3.70;;;31.90;31.90;;;;;;20760150;28;20058;-55
2021/06/16 17:24:27;;;;;;;9.13;4.25;;;31.70;30.80;;;;;;20760119;28;20398;-54
2021/06/16 17:34:29;;;;;;;13.15;7.40;;;31.70;29.90;;;;;;20758153;28;20138;-58
2021/06/16 17:44:32;;;;;;;7.57;3.63;;;31.60;30.00;;;;;;20757605;28;20054;-55
2021/06/16 17:54:39;;;;;;;8.98;4.35;;;31.20;30.30;;;;;;20757030;28;20050;-54
2021/06/16 18:04:41;;;;;;;7.90;3.65;;;31.10;29.80;;;;;;20757230;28;20133;-53
2021/06/16 18:14:42;;;;;;;10.98;3.63;;;31.30;29.90;;;;;;20756010;28;20057;-54
2021/06/16 18:24:44;;;;;;;8.18;3.03;;;30.50;36.30;;;;;;20756137;28;20081;-53
2021/06/16 18:34:50;;;;;;;47.67;33.20;;;29.50;34.50;;;;;;20754549;28;20050;-51
2021/06/16 18:44:52;;;;;;;33.58;6.43;;;29.30;33.10;;;;;;20753485;28;20088;-54
2021/06/16 18:54:53;;;;;;;15.43;4.57;;;29.00;42.70;;;;;;20752984;28;20086;-59
2021/06/16 19:15:11;;;;;;;18.33;7.10;;;27.20;51.60;;;;;;20751299;28;20053;-52
2021/06/16 19:25:14;;;;;;;15.60;6.93;;;25.80;53.00;;;;;;20750116;28;20494;-55
2021/06/16 19:35:15;;;;;;;15.85;7.43;;;23.90;59.30;;;;;;20750586;28;20132;-51
2021/06/16 19:45:18;;;;;;;9.15;5.53;;;23.60;61.20;;;;;;20749918;28;20133;-54
2021/06/16 19:55:20;;;;;;;;;;;23.60;61.10;;;;;;20749373;28;20050;-53
2021/06/16 20:05:22;;;;;;;13.00;6.83;;;23.40;62.30;;;;;;20748690;28;19921;-54
2021/06/16 20:15:24;;;;;;;13.68;8.70;;;23.60;62.70;;;;;;20748217;28;20132;-54
2021/06/16 20:25:27;;;;;;;13.73;8.85;;;23.60;67.90;;;;;;20747906;28;20486;-55
2021/06/16 20:35:29;;;;;;;14.43;6.13;;;23.60;67.60;;;;;;20750299;28;20132;-55
2021/06/16 20:45:31;;;;;;;14.10;6.53;;;23.70;64.00;;;;;;20762737;28;20050;-54
2021/06/16 20:55:33;;;;;;;10.18;4.93;;;23.70;61.90;;;;;;20760783;28;20050;-54
2021/06/16 21:05:35;;;;;;;8.57;4.73;;;23.80;59.00;;;;;;20762033;28;20046;-53
2021/06/16 21:15:44;;;;;;;8.63;4.20;;;23.70;58.00;;;;;;20761028;28;20314;-55
2021/06/16 21:25:46;;;;;;;10.13;4.43;;;23.60;58.00;;;;;;20776266;28;20060;-55
2021/06/16 21:35:48;;;;;;;9.35;4.43;;;23.30;59.00;;;;;;20759928;28;20073;-56
2021/06/16 21:45:51;;;;;;;9.77;4.55;;;23.20;59.80;;;;;;20758258;28;20421;-53
2021/06/16 21:55:53;;;;;;;8.98;4.70;;;23.10;60.20;;;;;;20759052;28;20053;-54
2021/06/16 22:05:57;;;;;;;10.27;4.82;;;23.10;60.30;;;;;;20757739;28;20053;-54
2021/06/16 22:15:58;;;;;;;8.82;4.43;;;23.20;60.00;;;;;;20755644;28;20060;-59
2021/06/16 22:26:00;;;;;;;10.23;4.80;;;23.20;60.00;;;;;;20755713;28;20451;-54
2021/06/16 22:36:03;;;;;;;8.77;4.40;;;23.10;59.60;;;;;;20753963;28;20168;-53
2021/06/16 22:46:05;;;;;;;9.20;5.15;;;23.10;60.70;;;;;;20753383;28;20056;-54
2021/06/16 22:56:07;;;;;;;9.90;4.18;;;22.90;61.40;;;;;;20752659;28;20081;-53
2021/06/16 23:06:10;;;;;;;8.27;4.50;;;22.80;61.40;;;;;;20751843;28;20457;-55
2021/06/16 23:16:12;;;;;;;9.32;5.13;;;22.60;61.00;;;;;;20751010;28;20061;-56
2021/06/16 23:26:14;;;;;;;8.43;3.90;;;22.50;61.50;;;;;;20750847;28;20441;-54
2021/06/16 23:36:16;;;;;;;7.03;3.90;;;22.40;61.70;;;;;;20749574;28;20490;-54
2021/06/16 23:46:17;;;;;;;7.50;3.67;;;22.10;61.90;;;;;;20748252;28;20057;-54
2021/06/16 23:56:19;;;;;;;8.90;4.10;;;22.10;62.10;;;;;;20749896;28;20050;-54
